Jim Falls, Wisconsin
Current Conditions -  °F | °C
As of 2:56 AM on Saturday 25 Oct 2014 (Local Time) from KEAU Reporting Station
Clear Clear  
Wind Chill: 46°   Ceiling: Unl
Heat Index: 48°   Visibility: 7mi
Dew Point: 47°   Wind: 5mph
Humidity: 96%   Direction: 240°WSW
Pressure: 29.89"   Gusts: NA
Location:  45.05°N, 91.27°W
Report Text: KEAU 250756Z 24004KT 7SM CLR 09/08 A2989 RMK AO2 SLP122 T00890083
Loading
Personal Weather Stations






























Interactive Weather Map
Tropical Storm Tracking
New forecast layout! Learn more

10-Day Weather Forecast

Advertisements
Track Severe Weather on mobile